Time;durP1;ratioP1;P1;durP2;ratioP2;P2;SDS_P1;SDS_P2;PMS_P1;PMS_P2;Temp;Humidity;BMP_temperature;BMP_pressure;BME280_temperature;BME280_humidity;BME280_pressure;Samples;Min_cycle;Max_cycle;Signal;HPM_P1;HPM_P2
2023/11/11 00:02:24;;;;;;;28.25;19.65;;;11.30;99.90;;;;;;5032742;28;20026;-57
2023/11/11 00:04:50;;;;;;;26.75;19.83;;;11.30;99.90;;;;;;5032126;28;20485;-57
2023/11/11 00:07:16;;;;;;;26.73;18.02;;;;;;;;;;5032319;28;20469;-57
2023/11/11 00:09:42;;;;;;;33.70;26.40;;;;;;;;;;5032281;28;20037;-57
2023/11/11 00:12:08;;;;;;;24.60;16.63;;;;;;;;;;5032205;28;20033;-57
2023/11/11 00:14:35;;;;;;;18.20;14.02;;;;;;;;;;5032280;28;20078;-57
2023/11/11 00:17:00;;;;;;;22.00;16.35;;;11.50;99.90;;;;;;5013684;28;20095;-57
2023/11/11 00:19:27;;;;;;;18.33;12.60;;;11.40;99.90;;;;;;4980890;28;20042;-58
2023/11/11 00:21:54;;;;;;;20.40;15.93;;;;;;;;;;5032218;28;20037;-57
2023/11/11 00:24:21;;;;;;;19.75;15.98;;;11.10;99.90;;;;;;5032346;28;20021;-57
2023/11/11 00:26:48;;;;;;;19.75;14.70;;;;;;;;;;5031955;28;20037;-57
2023/11/11 00:29:16;;;;;;;20.67;15.48;;;;;;;;;;5032203;28;20029;-57
2023/11/11 00:31:45;;;;;;;21.73;16.65;;;;;;;;;;5032002;28;20038;-58
2023/11/11 00:34:11;;;;;;;24.30;17.60;;;;;;;;;;5032004;28;20025;-57
2023/11/11 00:36:39;;;;;;;24.13;18.55;;;11.50;99.90;;;;;;5031962;28;20072;-58
2023/11/11 00:39:10;;;;;;;34.15;23.58;;;11.40;99.90;;;;;;5031953;28;20041;-58
2023/11/11 00:41:39;;;;;;;29.67;21.63;;;11.50;99.90;;;;;;5031978;28;20034;-57
2023/11/11 00:44:10;;;;;;;22.48;18.10;;;11.60;99.90;;;;;;5032162;28;20040;-57
2023/11/11 00:46:40;;;;;;;24.02;19.38;;;11.40;99.90;;;;;;5031810;28;20037;-58
2023/11/11 00:49:07;;;;;;;24.60;17.77;;;11.40;99.90;;;;;;5031901;28;20029;-57
2023/11/11 00:51:36;;;;;;;22.02;17.90;;;11.50;99.90;;;;;;5032074;28;20104;-58
2023/11/11 00:54:02;;;;;;;24.70;18.50;;;11.50;99.90;;;;;;5031850;28;20026;-57
2023/11/11 00:56:28;;;;;;;28.75;19.23;;;11.40;99.90;;;;;;5031852;28;20034;-58
2023/11/11 00:58:54;;;;;;;23.48;18.10;;;11.30;99.90;;;;;;5031702;28;20110;-57
2023/11/11 01:01:20;;;;;;;25.73;19.63;;;11.30;99.90;;;;;;5032034;28;20201;-57
2023/11/11 01:03:45;;;;;;;26.13;19.25;;;11.20;99.90;;;;;;5032135;28;20072;-57
2023/11/11 01:06:12;;;;;;;26.95;20.65;;;11.10;99.90;;;;;;5031643;28;20061;-58
2023/11/11 01:08:37;;;;;;;27.38;21.42;;;11.00;99.90;;;;;;5031653;28;20036;-57
2023/11/11 01:11:03;;;;;;;26.35;19.95;;;11.00;99.90;;;;;;5031746;28;20045;-57
2023/11/11 01:13:29;;;;;;;31.73;23.80;;;;;;;;;;5031723;28;20036;-55
2023/11/11 01:15:59;;;;;;;37.83;27.83;;;;;;;;;;5031477;28;20041;-56
2023/11/11 01:18:29;;;;;;;34.15;26.48;;;11.60;99.90;;;;;;5035290;28;20397;-56
2023/11/11 01:20:58;;;;;;;49.33;35.42;;;11.60;99.90;;;;;;5035770;28;20041;-56
2023/11/11 01:23:25;;;;;;;54.38;39.10;;;11.60;99.90;;;;;;5035632;28;20223;-57
2023/11/11 01:25:51;;;;;;;73.55;48.63;;;11.60;99.90;;;;;;5035390;28;20093;-56
2023/11/11 01:28:17;;;;;;;81.43;51.10;;;11.70;99.90;;;;;;5035555;28;20033;-56
2023/11/11 01:30:43;;;;;;;76.38;52.78;;;11.70;99.90;;;;;;4984015;28;20030;-57
2023/11/11 01:33:09;;;;;;;73.35;52.03;;;11.60;99.90;;;;;;5035378;28;20029;-56
2023/11/11 01:35:34;;;;;;;80.80;53.65;;;11.80;99.90;;;;;;5035551;28;20544;-56
2023/11/11 01:38:00;;;;;;;79.13;52.70;;;11.70;99.90;;;;;;5035421;28;20108;-56
2023/11/11 01:40:26;;;;;;;75.28;50.65;;;;;;;;;;5035343;28;20032;-56
2023/11/11 01:42:52;;;;;;;81.53;56.38;;;11.60;99.90;;;;;;5035200;28;20033;-56
2023/11/11 01:45:18;;;;;;;62.35;46.00;;;11.90;99.90;;;;;;5035258;28;20025;-56
2023/11/11 01:47:44;;;;;;;63.88;44.80;;;;;;;;;;5035160;28;20025;-56
2023/11/11 01:50:11;;;;;;;69.68;45.78;;;11.70;99.90;;;;;;5035011;28;20495;-56
2023/11/11 01:52:37;;;;;;;52.95;39.83;;;11.70;99.90;;;;;;4984147;28;20033;-56
2023/11/11 01:55:05;;;;;;;63.45;44.55;;;11.70;99.90;;;;;;5034758;28;20044;-56
2023/11/11 01:57:31;;;;;;;66.13;46.42;;;11.60;99.90;;;;;;4983868;28;20079;-56
2023/11/11 01:59:59;;;;;;;54.88;39.42;;;11.60;99.90;;;;;;5035017;28;20021;-56
2023/11/11 02:02:25;;;;;;;58.72;40.53;;;11.50;99.90;;;;;;5034788;28;20041;-56
2023/11/11 02:04:51;;;;;;;154.88;46.33;;;11.50;99.90;;;;;;5034150;28;20057;-56
2023/11/11 02:07:16;;;;;;;58.70;39.00;;;11.50;99.90;;;;;;5034799;28;20389;-56
2023/11/11 02:09:43;;;;;;;83.57;45.25;;;11.50;99.90;;;;;;5035045;28;20025;-56
2023/11/11 02:12:09;;;;;;;161.02;47.33;;;11.30;99.90;;;;;;5034673;28;20031;-56
2023/11/11 02:14:37;;;;;;;86.07;40.25;;;11.40;99.90;;;;;;4999150;28;20037;-56
2023/11/11 02:17:03;;;;;;;50.95;35.00;;;11.50;99.90;;;;;;4983944;28;20037;-56
2023/11/11 02:19:29;;;;;;;180.77;47.63;;;11.50;99.90;;;;;;5016745;28;20033;-56
2023/11/11 02:21:54;;;;;;;96.05;39.00;;;11.60;99.90;;;;;;5034357;28;20057;-56
2023/11/11 02:24:21;;;;;;;50.88;35.85;;;11.40;99.90;;;;;;5034503;28;20096;-56
2023/11/11 02:26:48;;;;;;;49.30;36.10;;;11.20;99.90;;;;;;5034483;28;20025;-56
2023/11/11 02:29:13;;;;;;;57.00;38.08;;;11.30;99.90;;;;;;5034212;28;20035;-56
2023/11/11 02:31:39;;;;;;;45.53;33.20;;;11.50;99.90;;;;;;5034334;28;20472;-55
2023/11/11 02:34:05;;;;;;;48.33;33.20;;;11.50;99.90;;;;;;4982965;28;20083;-56
2023/11/11 02:36:31;;;;;;;44.10;34.78;;;11.70;99.90;;;;;;5034124;28;20032;-55
2023/11/11 02:38:57;;;;;;;38.47;29.08;;;;;;;;;;4982612;28;20053;-56
2023/11/11 02:41:22;;;;;;;36.72;28.65;;;12.00;99.90;;;;;;5034066;28;20090;-56
2023/11/11 02:43:48;;;;;;;37.38;28.85;;;11.80;99.90;;;;;;4982698;28;20548;-57
2023/11/11 02:46:15;;;;;;;47.00;34.35;;;11.80;99.90;;;;;;5033906;28;20107;-57
2023/11/11 02:48:41;;;;;;;33.83;27.02;;;11.90;99.90;;;;;;5033910;28;20045;-57
2023/11/11 02:51:07;;;;;;;31.02;25.00;;;11.90;99.90;;;;;;5034117;28;20029;-56
2023/11/11 02:53:33;;;;;;;33.85;26.27;;;12.00;99.90;;;;;;5053802;28;20025;-56
2023/11/11 02:55:59;;;;;;;34.05;27.08;;;12.00;99.90;;;;;;5053764;28;20033;-56
2023/11/11 02:58:25;;;;;;;30.88;24.80;;;12.00;99.90;;;;;;5034988;28;20037;-57
2023/11/11 03:00:53;;;;;;;30.48;23.80;;;11.90;99.90;;;;;;5053406;28;20039;-57
2023/11/11 03:03:18;;;;;;;30.35;24.23;;;11.90;99.90;;;;;;5053435;28;20092;-56
2023/11/11 03:05:44;;;;;;;32.83;24.73;;;11.70;99.90;;;;;;5053480;28;20539;-57
2023/11/11 03:08:11;;;;;;;33.95;25.20;;;11.60;99.90;;;;;;5044419;28;20028;-57
2023/11/11 03:10:37;;;;;;;29.98;23.10;;;;;;;;;;5033712;28;20168;-56
2023/11/11 03:13:03;;;;;;;29.17;22.80;;;;;;;;;;5033491;28;20032;-56
2023/11/11 03:15:29;;;;;;;30.15;24.05;;;;;;;;;;5033236;28;20041;-56
2023/11/11 03:17:55;;;;;;;28.88;22.92;;;;;;;;;;5033426;28;20037;-56
2023/11/11 03:20:21;;;;;;;26.02;21.70;;;;;;;;;;5033183;28;20049;-57
2023/11/11 03:22:47;;;;;;;28.90;21.95;;;;;;;;;;5033233;28;20033;-56
2023/11/11 03:25:13;;;;;;;32.15;24.45;;;11.60;99.90;;;;;;5033301;28;20031;-56
2023/11/11 03:27:39;;;;;;;32.45;23.60;;;11.40;99.90;;;;;;5033430;28;20040;-56
2023/11/11 03:30:06;;;;;;;32.95;25.13;;;11.20;99.90;;;;;;5033051;28;20038;-56
2023/11/11 03:32:32;;;;;;;34.45;25.30;;;11.10;99.90;;;;;;5033289;28;20043;-56
2023/11/11 03:34:57;;;;;;;33.28;25.20;;;11.00;99.90;;;;;;5032875;28;20124;-56
2023/11/11 03:37:25;;;;;;;38.25;26.85;;;10.90;99.90;;;;;;5032866;28;20025;-55
2023/11/11 03:39:51;;;;;;;49.55;28.80;;;10.90;99.90;;;;;;5032115;28;20025;-56
2023/11/11 03:42:17;;;;;;;35.67;25.92;;;11.20;99.90;;;;;;5032897;28;20060;-56
2023/11/11 03:44:42;;;;;;;31.95;24.50;;;11.40;99.90;;;;;;5032906;28;20033;-55
2023/11/11 03:47:08;;;;;;;28.17;23.10;;;11.70;99.90;;;;;;5032986;28;20056;-56
2023/11/11 03:49:34;;;;;;;31.88;22.63;;;;;;;;;;5032757;28;20029;-56
2023/11/11 03:52:00;;;;;;;28.55;19.85;;;11.30;99.90;;;;;;5032809;28;20440;-56
2023/11/11 03:54:26;;;;;;;24.73;17.98;;;11.00;99.90;;;;;;5032858;28;20025;-56
2023/11/11 03:56:51;;;;;;;23.02;18.50;;;10.50;99.90;;;;;;5032533;28;20033;-56
2023/11/11 03:59:17;;;;;;;24.38;18.08;;;10.20;99.90;;;;;;5032967;28;20496;-56
2023/11/11 04:01:43;;;;;;;23.60;18.20;;;10.20;99.90;;;;;;5032816;28;20109;-55
2023/11/11 04:04:09;;;;;;;22.90;17.50;;;10.20;99.90;;;;;;4981623;28;20116;-56
2023/11/11 04:06:36;;;;;;;23.88;18.52;;;;;;;;;;5032127;28;20057;-55
2023/11/11 04:09:02;;;;;;;25.65;17.75;;;10.50;99.90;;;;;;5032370;28;20026;-56
2023/11/11 04:11:28;;;;;;;21.33;16.85;;;10.60;99.90;;;;;;5032297;28;20103;-56
2023/11/11 04:13:55;;;;;;;17.67;13.85;;;10.70;99.90;;;;;;5014778;28;20071;-56
2023/11/11 04:16:21;;;;;;;19.45;15.25;;;10.90;99.90;;;;;;4981713;28;20042;-55
2023/11/11 04:18:47;;;;;;;20.02;14.45;;;10.80;99.90;;;;;;5032062;28;20358;-56
2023/11/11 04:21:13;;;;;;;20.13;12.82;;;10.50;99.90;;;;;;5032646;28;20032;-56
2023/11/11 04:23:40;;;;;;;19.95;14.63;;;10.30;99.90;;;;;;5032210;28;20032;-56
2023/11/11 04:26:06;;;;;;;21.15;14.60;;;;;;;;;;5032257;28;20048;-55
2023/11/11 04:28:33;;;;;;;17.30;12.93;;;;;;;;;;5032494;28;20049;-55
2023/11/11 04:30:59;;;;;;;17.40;13.05;;;;;;;;;;5032055;28;20037;-56
2023/11/11 04:33:28;;;;;;;15.98;13.18;;;;;;;;;;5032128;28;20029;-55
2023/11/11 04:35:54;;;;;;;16.13;11.82;;;;;;;;;;5032076;28;20108;-55
2023/11/11 04:38:22;;;;;;;16.83;12.75;;;;;;;;;;5032065;28;20091;-56
2023/11/11 04:40:49;;;;;;;15.65;10.68;;;;;;;;;;4981990;28;20044;-56
2023/11/11 04:43:16;;;;;;;14.23;9.98;;;;;;;;;;5031943;28;20040;-56
2023/11/11 04:45:42;;;;;;;12.35;9.77;;;;;;;;;;5031798;28;20064;-56
2023/11/11 04:48:09;;;;;;;13.55;8.57;;;10.60;99.90;;;;;;4981225;28;20077;-56
2023/11/11 04:50:35;;;;;;;11.48;8.52;;;10.90;99.90;;;;;;4980956;28;20055;-56
2023/11/11 04:53:01;;;;;;;12.02;8.25;;;10.90;99.90;;;;;;5031303;28;20121;-55
2023/11/11 04:55:27;;;;;;;10.63;8.07;;;11.00;99.90;;;;;;4980754;28;20442;-56
2023/11/11 04:57:52;;;;;;;10.15;6.53;;;11.00;99.90;;;;;;5031644;28;20040;-56
2023/11/11 05:00:18;;;;;;;9.43;6.35;;;11.10;99.90;;;;;;4980759;28;20088;-55
2023/11/11 05:02:44;;;;;;;8.18;6.10;;;;;;;;;;5031587;28;20029;-56
2023/11/11 05:05:10;;;;;;;7.65;5.68;;;11.20;99.90;;;;;;5031733;28;20125;-55
2023/11/11 05:07:40;;;;;;;6.00;4.40;;;11.40;99.90;;;;;;5031724;28;20456;-55
2023/11/11 05:10:09;;;;;;;6.30;3.92;;;11.60;99.90;;;;;;5031521;28;20025;-56
2023/11/11 05:12:37;;;;;;;5.35;3.63;;;11.70;99.90;;;;;;5031958;28;20029;-56
2023/11/11 05:15:13;;;;;;;5.03;3.60;;;11.70;99.90;;;;;;5031606;28;20130;-56
2023/11/11 05:17:43;;;;;;;3.78;2.67;;;11.50;99.90;;;;;;4984878;28;20124;-55
2023/11/11 05:20:14;;;;;;;4.25;2.83;;;11.40;99.90;;;;;;5032141;28;20034;-56
2023/11/11 05:22:41;;;;;;;5.75;3.45;;;11.20;99.90;;;;;;5031545;28;20065;-56
2023/11/11 05:25:07;;;;;;;4.70;3.22;;;11.20;99.90;;;;;;5031715;28;20033;-55
2023/11/11 05:27:33;;;;;;;1.90;1.55;;;11.10;99.90;;;;;;5031863;28;20022;-55
2023/11/11 05:29:59;;;;;;;3.30;1.95;;;11.00;99.90;;;;;;5031410;28;20388;-55
2023/11/11 05:32:26;;;;;;;2.47;1.83;;;10.90;99.90;;;;;;5031640;28;20036;-56
2023/11/11 05:34:52;;;;;;;3.13;1.98;;;10.80;99.90;;;;;;5031283;28;20038;-55
2023/11/11 05:37:18;;;;;;;3.00;2.00;;;10.80;99.90;;;;;;4989540;28;20420;-55
2023/11/11 05:39:44;;;;;;;3.67;2.05;;;10.80;99.90;;;;;;4989482;28;20133;-57
2023/11/11 05:42:11;;;;;;;4.38;2.60;;;10.80;99.90;;;;;;4989765;28;20490;-55
2023/11/11 05:44:40;;;;;;;3.97;2.42;;;10.90;99.90;;;;;;4989891;28;20073;-55
2023/11/11 05:47:07;;;;;;;5.20;3.10;;;10.90;99.90;;;;;;5006189;28;20038;-55
2023/11/11 05:49:32;;;;;;;8.40;6.10;;;10.80;99.90;;;;;;5009343;28;20030;-56
2023/11/11 05:52:00;;;;;;;26.30;8.85;;;10.90;99.90;;;;;;5008888;28;20513;-55
2023/11/11 05:54:26;;;;;;;6.65;3.58;;;10.80;99.90;;;;;;5009131;28;20501;-55
2023/11/11 05:56:53;;;;;;;5.32;3.80;;;10.80;99.90;;;;;;5009043;28;20080;-55
2023/11/11 05:59:19;;;;;;;7.00;4.53;;;10.80;99.90;;;;;;5007792;28;20030;-55
2023/11/11 06:01:48;;;;;;;7.93;5.45;;;10.90;99.90;;;;;;5008489;28;20398;-55
2023/11/11 06:04:17;;;;;;;6.05;4.65;;;10.90;99.90;;;;;;5012063;28;20025;-56
2023/11/11 06:06:44;;;;;;;7.53;6.68;;;10.90;99.90;;;;;;4962823;28;20057;-55
2023/11/11 06:09:18;;;;;;;5.60;3.63;;;10.90;99.90;;;;;;5046467;28;20057;-56
2023/11/11 06:11:45;;;;;;;11.65;8.45;;;10.80;99.90;;;;;;5052669;28;20025;-56
2023/11/11 06:14:21;;;;;;;13.23;11.68;;;10.90;99.90;;;;;;4992059;28;20477;-55
2023/11/11 06:16:47;;;;;;;10.23;7.43;;;11.10;99.90;;;;;;4992598;28;20054;-56
2023/11/11 06:19:13;;;;;;;12.10;8.50;;;11.10;99.90;;;;;;4975450;28;20045;-55
2023/11/11 06:21:39;;;;;;;60.08;43.67;;;11.20;99.90;;;;;;4989808;28;20034;-55
2023/11/11 06:24:05;;;;;;;8.63;5.82;;;11.20;99.90;;;;;;4992479;28;20053;-55
2023/11/11 06:26:31;;;;;;;5.10;3.80;;;11.10;99.90;;;;;;4945706;28;20038;-56
2023/11/11 06:28:57;;;;;;;8.15;5.95;;;11.00;99.90;;;;;;4990756;28;20046;-56
2023/11/11 06:31:23;;;;;;;6.68;5.22;;;11.00;99.90;;;;;;4958737;28;20382;-55
2023/11/11 06:33:52;;;;;;;7.28;5.95;;;11.10;99.90;;;;;;4991065;28;20030;-55
2023/11/11 06:36:18;;;;;;;15.25;13.45;;;;;;;;;;4974645;28;20098;-56
2023/11/11 06:38:45;;;;;;;12.55;8.23;;;11.50;99.90;;;;;;4991442;28;20030;-56
2023/11/11 06:41:11;;;;;;;8.23;5.35;;;12.00;99.90;;;;;;4991500;28;20022;-55
2023/11/11 06:43:38;;;;;;;7.28;4.63;;;13.90;99.90;;;;;;4991746;28;20022;-55
2023/11/11 06:46:05;;;;;;;9.65;7.60;;;16.20;99.90;;;;;;5044364;28;20511;-55
2023/11/11 06:48:32;;;;;;;6.38;4.32;;;17.10;99.90;;;;;;4985864;28;20040;-57
2023/11/11 06:50:58;;;;;;;6.88;4.97;;;17.20;99.90;;;;;;5053121;28;20017;-57
2023/11/11 06:53:24;;;;;;;5.55;3.88;;;;;;;;;;5053112;28;20028;-57
2023/11/11 06:55:50;;;;;;;11.50;8.88;;;15.20;99.90;;;;;;5053014;28;20029;-56
2023/11/11 06:58:16;;;;;;;8.05;4.68;;;15.40;99.90;;;;;;5053046;28;20040;-57
2023/11/11 07:00:42;;;;;;;7.82;6.03;;;;;;;;;;4998697;28;20383;-57
2023/11/11 07:03:11;;;;;;;4.55;3.70;;;15.10;99.90;;;;;;5053476;28;20029;-57
2023/11/11 07:05:37;;;;;;;6.40;3.50;;;14.10;99.90;;;;;;5053488;28;20594;-57
2023/11/11 07:08:03;;;;;;;6.28;3.97;;;13.60;99.90;;;;;;5053536;28;20024;-56
2023/11/11 07:10:33;;;;;;;5.72;4.82;;;13.30;99.90;;;;;;5002191;28;20045;-57
2023/11/11 07:13:00;;;;;;;7.75;5.20;;;;;;;;;;5053351;28;20056;-57
2023/11/11 07:15:26;;;;;;;5.65;3.65;;;;;;;;;;5052181;28;20500;-57
2023/11/11 07:17:53;;;;;;;11.80;7.45;;;12.30;99.90;;;;;;5052259;28;20078;-56
2023/11/11 07:20:21;;;;;;;10.73;7.95;;;12.30;99.90;;;;;;5037529;28;20065;-57
2023/11/11 07:22:48;;;;;;;7.20;3.45;;;12.40;99.90;;;;;;5049528;28;20388;-56
2023/11/11 07:25:14;;;;;;;6.20;3.83;;;12.40;99.90;;;;;;5053214;28;20411;-57
2023/11/11 07:27:40;;;;;;;6.43;3.53;;;12.40;99.90;;;;;;5053095;28;20027;-58
2023/11/11 07:30:09;;;;;;;7.32;4.05;;;12.40;99.90;;;;;;5052820;28;20024;-56
2023/11/11 07:32:36;;;;;;;14.23;7.53;;;12.40;99.90;;;;;;4952235;28;20437;-53
2023/11/11 07:35:02;;;;;;;10.13;6.70;;;12.30;99.90;;;;;;5052604;28;20025;-55
2023/11/11 07:37:28;;;;;;;6.30;4.30;;;12.20;99.90;;;;;;5001287;28;20040;-54
2023/11/11 07:39:55;;;;;;;8.82;5.85;;;12.20;99.90;;;;;;5052521;28;20104;-54
2023/11/11 07:42:22;;;;;;;6.13;3.33;;;12.20;99.90;;;;;;5016965;28;20519;-55
2023/11/11 07:44:47;;;;;;;6.13;3.80;;;12.10;99.90;;;;;;5052192;28;20034;-54
2023/11/11 07:47:14;;;;;;;7.50;5.63;;;12.00;99.90;;;;;;5052474;28;20032;-54
2023/11/11 07:49:41;;;;;;;9.85;5.47;;;12.00;99.90;;;;;;5052763;28;20392;-54
2023/11/11 07:52:06;;;;;;;9.50;6.55;;;11.80;99.90;;;;;;5052729;28;20361;-54
2023/11/11 07:54:33;;;;;;;18.05;10.38;;;11.80;99.90;;;;;;5051787;28;20032;-53
2023/11/11 07:56:59;;;;;;;20.92;12.68;;;11.90;99.90;;;;;;5052242;28;20043;-55
2023/11/11 07:59:24;;;;;;;7.40;5.50;;;12.10;99.90;;;;;;5052384;28;20028;-53
2023/11/11 08:01:50;;;;;;;9.27;4.65;;;12.10;99.90;;;;;;5052152;28;20041;-54
2023/11/11 08:04:16;;;;;;;9.57;6.60;;;11.90;99.90;;;;;;5052585;28;20033;-53
2023/11/11 08:06:43;;;;;;;9.23;5.63;;;11.90;99.90;;;;;;5052437;28;20045;-55
2023/11/11 08:09:10;;;;;;;7.32;4.90;;;11.90;99.90;;;;;;5052443;28;20104;-54
2023/11/11 08:11:38;;;;;;;4.03;3.15;;;11.80;99.90;;;;;;5052346;28;20433;-53
2023/11/11 08:14:05;;;;;;;6.40;3.53;;;11.80;99.90;;;;;;5052439;28;20044;-54
2023/11/11 08:16:31;;;;;;;6.75;3.92;;;11.90;99.90;;;;;;5052063;28;20483;-54
2023/11/11 08:19:00;;;;;;;6.63;4.28;;;11.90;99.90;;;;;;5052206;28;20032;-53
2023/11/11 08:21:31;;;;;;;3.60;2.38;;;12.00;99.90;;;;;;5000302;28;20045;-54
2023/11/11 08:23:58;;;;;;;3.42;2.47;;;12.00;99.90;;;;;;5052235;28;20443;-53
2023/11/11 08:26:25;;;;;;;4.85;2.20;;;12.00;99.90;;;;;;5051736;28;20377;-53
2023/11/11 08:28:51;;;;;;;5.95;4.72;;;12.00;99.90;;;;;;5052032;28;20036;-53
2023/11/11 08:31:17;;;;;;;7.65;4.95;;;12.20;99.90;;;;;;5051864;28;20029;-54
2023/11/11 08:33:44;;;;;;;4.93;3.72;;;12.30;99.90;;;;;;5051889;28;20044;-54
2023/11/11 08:36:09;;;;;;;5.60;3.30;;;12.30;99.90;;;;;;5051573;28;20033;-53
2023/11/11 08:38:35;;;;;;;4.88;2.97;;;12.40;99.90;;;;;;5051887;28;20036;-53
2023/11/11 08:41:02;;;;;;;6.05;4.32;;;12.30;99.90;;;;;;5034086;28;20052;-53
2023/11/11 08:43:28;;;;;;;3.78;3.10;;;12.40;99.90;;;;;;5051906;28;20025;-55
2023/11/11 08:45:55;;;;;;;4.45;2.40;;;12.40;99.90;;;;;;5047377;28;20029;-54
2023/11/11 08:48:24;;;;;;;8.52;6.70;;;12.40;99.90;;;;;;5041217;28;20029;-53
2023/11/11 08:50:50;;;;;;;14.40;9.73;;;13.00;99.90;;;;;;5007885;28;20073;-55
2023/11/11 08:53:16;;;;;;;11.38;8.57;;;13.00;99.90;;;;;;5039724;28;20091;-55
2023/11/11 08:55:42;;;;;;;7.20;4.25;;;13.10;99.90;;;;;;5033665;28;20400;-55
2023/11/11 08:58:08;;;;;;;7.13;4.30;;;13.10;99.90;;;;;;4989317;28;20532;-54
2023/11/11 09:00:34;;;;;;;5.45;3.53;;;13.00;99.90;;;;;;5037941;28;20054;-56
2023/11/11 09:03:01;;;;;;;4.85;3.42;;;12.90;99.90;;;;;;5037066;28;20103;-57
2023/11/11 09:05:27;;;;;;;3.63;2.60;;;13.00;99.90;;;;;;5035798;28;20500;-58
2023/11/11 09:07:53;;;;;;;2.75;1.83;;;13.00;99.90;;;;;;5041183;28;20117;-57
2023/11/11 09:10:20;;;;;;;6.88;4.38;;;12.90;99.90;;;;;;5040371;28;20025;-56
2023/11/11 09:12:46;;;;;;;4.78;2.28;;;13.00;99.90;;;;;;5039699;28;20463;-58
2023/11/11 09:15:12;;;;;;;3.55;1.85;;;13.00;99.90;;;;;;5039969;28;20116;-56
2023/11/11 09:17:41;;;;;;;11.05;8.80;;;12.90;99.90;;;;;;5040378;28;20021;-60
2023/11/11 09:20:09;;;;;;;4.25;2.75;;;12.90;99.90;;;;;;5040146;28;20022;-60
2023/11/11 09:22:35;;;;;;;82.65;58.20;;;12.90;99.90;;;;;;5040018;28;20044;-59
2023/11/11 09:25:02;;;;;;;13.30;12.02;;;13.00;99.90;;;;;;5039877;28;20044;-60
2023/11/11 09:27:27;;;;;;;8.35;6.82;;;13.10;99.90;;;;;;5041508;28;20025;-60
2023/11/11 09:29:54;;;;;;;3.70;2.05;;;13.40;99.90;;;;;;5043724;28;20086;-60
2023/11/11 09:32:20;;;;;;;5.43;3.50;;;13.20;99.90;;;;;;5042534;28;20060;-56
2023/11/11 09:34:47;;;;;;;5.53;3.25;;;13.20;99.90;;;;;;5041326;28;20045;-55
2023/11/11 09:37:13;;;;;;;10.75;6.45;;;13.10;99.90;;;;;;4990166;28;20030;-57
2023/11/11 09:39:39;;;;;;;5.95;3.38;;;13.30;99.90;;;;;;5044042;28;20032;-57
2023/11/11 09:42:07;;;;;;;6.65;4.43;;;13.30;99.90;;;;;;5042608;28;20088;-56
2023/11/11 09:44:32;;;;;;;6.28;4.03;;;13.30;99.90;;;;;;5042340;28;20377;-56
2023/11/11 09:47:02;;;;;;;6.80;5.28;;;13.50;99.90;;;;;;5024626;28;20028;-57
2023/11/11 09:49:30;;;;;;;5.38;4.50;;;13.50;99.90;;;;;;5041350;28;20423;-58
2023/11/11 09:51:57;;;;;;;7.93;5.72;;;;;;;;;;5040955;28;20099;-56
2023/11/11 09:54:23;;;;;;;7.13;4.15;;;13.90;99.90;;;;;;5041312;28;20036;-55
2023/11/11 09:56:50;;;;;;;10.57;6.35;;;14.00;99.90;;;;;;5045974;28;20564;-55
2023/11/11 09:59:21;;;;;;;6.45;3.70;;;14.10;99.90;;;;;;5041149;28;20094;-55
2023/11/11 10:01:47;;;;;;;7.80;4.18;;;14.20;99.90;;;;;;5023400;28;20122;-56
2023/11/11 10:04:13;;;;;;;9.05;6.30;;;14.30;99.90;;;;;;5044307;28;20041;-56
2023/11/11 10:06:40;;;;;;;22.33;13.80;;;;;;;;;;5006273;28;20049;-55
2023/11/11 10:09:09;;;;;;;8.15;5.80;;;14.30;99.90;;;;;;5041290;28;20025;-57
2023/11/11 10:11:35;;;;;;;4.22;2.55;;;14.40;99.90;;;;;;5043082;28;20490;-57
2023/11/11 10:14:02;;;;;;;2.10;1.63;;;;;;;;;;5041935;28;20424;-58
2023/11/11 10:16:28;;;;;;;1.85;1.33;;;;;;;;;;5041968;28;20761;-57
2023/11/11 10:18:58;;;;;;;2.65;1.58;;;;;;;;;;5041301;28;20036;-58
2023/11/11 10:21:24;;;;;;;4.90;3.58;;;14.40;99.90;;;;;;5042367;28;20026;-57
2023/11/11 10:23:55;;;;;;;5.25;3.80;;;14.50;99.90;;;;;;5040741;28;20021;-58
2023/11/11 10:26:21;;;;;;;4.78;2.20;;;14.60;99.90;;;;;;5004643;28;20033;-57
2023/11/11 10:28:48;;;;;;;6.32;2.83;;;14.70;99.90;;;;;;5040866;28;20493;-57
2023/11/11 10:31:15;;;;;;;5.53;3.60;;;14.70;99.90;;;;;;4991301;28;20495;-55
2023/11/11 10:33:42;;;;;;;4.28;3.08;;;14.80;99.90;;;;;;5041983;28;20035;-57
2023/11/11 10:36:08;;;;;;;3.25;2.13;;;15.00;99.90;;;;;;5042642;28;20042;-57
2023/11/11 10:38:34;;;;;;;2.33;1.70;;;15.10;99.90;;;;;;5042484;28;20024;-59
2023/11/11 10:41:00;;;;;;;2.80;1.38;;;15.10;99.90;;;;;;5042503;28;20017;-58
2023/11/11 10:43:26;;;;;;;4.28;2.10;;;15.10;99.90;;;;;;5042370;28;20025;-58
2023/11/11 10:45:53;;;;;;;5.18;2.22;;;15.10;99.90;;;;;;4997772;28;20033;-59
2023/11/11 10:48:23;;;;;;;3.95;2.30;;;15.00;99.90;;;;;;5043321;28;20067;-59
2023/11/11 10:50:53;;;;;;;3.13;2.22;;;15.00;99.90;;;;;;4991309;28;20100;-57
2023/11/11 10:53:19;;;;;;;3.75;2.80;;;15.00;99.90;;;;;;5040683;28;20385;-55
2023/11/11 10:55:52;;;;;;;3.63;1.98;;;14.90;99.90;;;;;;4942728;28;20542;-56
2023/11/11 10:58:19;;;;;;;3.78;2.10;;;14.90;99.90;;;;;;5042771;28;20036;-59
2023/11/11 11:00:49;;;;;;;4.53;2.25;;;15.00;99.90;;;;;;5041153;28;20460;-57
2023/11/11 11:03:19;;;;;;;3.65;2.53;;;14.90;99.90;;;;;;5043568;28;20025;-56
2023/11/11 11:05:52;;;;;;;3.80;2.33;;;14.80;99.90;;;;;;5041169;28;20043;-60
2023/11/11 11:08:48;;;;;;;4.85;2.53;;;14.80;99.90;;;;;;5037976;28;20028;-60
2023/11/11 11:11:38;;;;;;;4.88;3.67;;;14.70;99.90;;;;;;5040331;28;20021;-57
2023/11/11 11:14:14;;;;;;;4.25;3.05;;;14.60;99.90;;;;;;5041513;28;20021;-56
2023/11/11 11:16:41;;;;;;;6.10;4.15;;;14.60;99.90;;;;;;5041170;28;20032;-55
2023/11/11 11:19:16;;;;;;;4.40;2.80;;;14.50;99.90;;;;;;5040457;28;20540;-53
2023/11/11 11:21:42;;;;;;;6.75;3.03;;;14.50;99.90;;;;;;5041358;28;20029;-54
2023/11/11 11:24:11;;;;;;;4.75;3.00;;;14.50;99.90;;;;;;5039580;28;20021;-52
2023/11/11 11:26:37;;;;;;;4.43;3.47;;;14.50;99.90;;;;;;4988707;28;20029;-52
2023/11/11 11:29:21;;;;;;;4.75;3.00;;;14.50;99.90;;;;;;5040450;28;20171;-52
2023/11/11 11:32:11;;;;;;;7.22;2.63;;;14.50;99.90;;;;;;5041107;28;20435;-54
2023/11/11 11:35:03;;;;;;;2.95;2.25;;;14.40;99.90;;;;;;5025002;28;20022;-53
2023/11/11 11:37:30;;;;;;;6.40;2.30;;;14.30;99.90;;;;;;5038803;28;20063;-53
2023/11/11 11:40:17;;;;;;;6.30;4.20;;;14.30;99.90;;;;;;5042430;28;20588;-53
2023/11/11 11:42:48;;;;;;;6.60;2.47;;;14.20;99.90;;;;;;4990523;28;20042;-53
2023/11/11 11:45:14;;;;;;;6.47;3.33;;;14.00;99.90;;;;;;5039507;28;20509;-56
2023/11/11 11:47:40;;;;;;;4.72;2.60;;;13.80;99.90;;;;;;5002480;28;20033;-53
2023/11/11 11:50:07;;;;;;;5.18;3.33;;;13.90;99.90;;;;;;5022014;28;20059;-55
2023/11/11 11:52:34;;;;;;;5.45;3.50;;;14.00;99.90;;;;;;4989073;28;20029;-53
2023/11/11 11:54:59;;;;;;;4.63;3.40;;;14.00;99.90;;;;;;5039735;28;20036;-55
2023/11/11 11:57:27;;;;;;;5.60;4.13;;;14.10;99.90;;;;;;5023085;28;20489;-55
2023/11/11 12:00:09;;;;;;;5.07;3.20;;;14.00;99.90;;;;;;5027861;28;20032;-55
2023/11/11 12:02:40;;;;;;;;;;;14.00;99.90;;;;;;5042319;28;20116;-55
2023/11/11 12:05:09;;;;;;;4.03;3.03;;;14.00;99.90;;;;;;5039194;28;19952;-57
2023/11/11 12:07:37;;;;;;;4.07;3.25;;;14.00;99.90;;;;;;5040774;28;20711;-56
2023/11/11 12:10:07;;;;;;;6.07;4.28;;;13.80;99.90;;;;;;5039670;28;20025;-56
2023/11/11 12:12:33;;;;;;;6.60;3.92;;;14.00;99.90;;;;;;5037623;28;20473;-56
2023/11/11 12:14:58;;;;;;;4.95;3.13;;;14.00;99.90;;;;;;5042237;28;20087;-56
2023/11/11 12:17:25;;;;;;;2.53;2.10;;;;;;;;;;5042873;28;20025;-55
2023/11/11 12:19:54;;;;;;;3.53;2.60;;;13.30;99.90;;;;;;5038535;28;20024;-56
2023/11/11 12:22:20;;;;;;;4.38;2.60;;;13.10;99.90;;;;;;5038246;28;20033;-55
2023/11/11 12:24:46;;;;;;;4.90;3.05;;;12.80;99.90;;;;;;5043814;28;20044;-56
2023/11/11 12:27:12;;;;;;;3.83;2.47;;;12.70;99.90;;;;;;5041065;28;20052;-55
2023/11/11 12:29:41;;;;;;;3.88;2.58;;;12.50;99.90;;;;;;5039773;28;20393;-55
2023/11/11 12:32:13;;;;;;;6.55;3.58;;;12.50;99.90;;;;;;5039606;28;20017;-55
2023/11/11 12:34:40;;;;;;;4.85;2.85;;;12.40;99.90;;;;;;5039383;28;20533;-60
2023/11/11 12:37:06;;;;;;;5.05;2.88;;;12.30;99.90;;;;;;5041949;28;20489;-56
2023/11/11 12:39:33;;;;;;;3.90;3.17;;;12.20;99.90;;;;;;5039753;28;20053;-54
2023/11/11 12:42:01;;;;;;;3.42;2.50;;;12.10;99.90;;;;;;5039636;28;20110;-54
2023/11/11 12:44:35;;;;;;;2.35;1.67;;;12.00;99.90;;;;;;5039251;28;20021;-57
2023/11/11 12:47:07;;;;;;;4.43;3.08;;;;;;;;;;5016455;28;20049;-54
2023/11/11 12:49:33;;;;;;;2.20;1.67;;;11.80;99.90;;;;;;5021554;28;20041;-54
2023/11/11 12:51:59;;;;;;;4.90;3.88;;;;;;;;;;5000966;28;20487;-56
2023/11/11 12:54:32;;;;;;;6.05;3.72;;;11.80;99.90;;;;;;5017257;28;20025;-56